This demonstration page uses our WeatherBlox Daily Observations layout. Learn more.

Left ArrowRight Arrow

39.92423, -83.80882

Hourly Observations for July 24, 2019

Temp ( °F °C ) Dew Point ( °F °C ) Humidity (%) Winds ( mph kmh ) Pressure ( in mb ) Visibility ( mi km ) Precip ( " mm )
12:56 am 00:56 Mostly Cloudy 60 15.6 56 13.3 86 86 N 8 13 30.06 1018 10 16.0934 N/A
1:56 am 01:56 Clear 60 15.6 56 13.3 86 86 SE 3 6 30.05 1018 10 16.0934 N/A
3:56 am 03:56 Clear 57 13.9 57 13.9 100 100 N N/A 30.04 1017 10 16.0934 N/A
4:56 am 04:56 Clear 56 13.3 56 13.3 100 100 N N/A 30.04 1017 10 16.0934 N/A
5:56 am 05:56 Clear 56 13.3 55 12.8 97 97 NNW 5 7 30.07 1018 10 16.0934 N/A
6:56 am 06:56 Sunny 55 12.8 55 12.8 100 100 N 5 7 30.09 1019 10 16.0934 N/A
7:56 am 07:56 Sunny 60 15.6 59 15 96 96 NNE 6 9 30.1 1019 10 16.0934 N/A
8:56 am 08:56 Sunny 64 17.8 60 15.6 87 87 N 5 7 30.13 1020 10 16.0934 N/A
9:56 am 09:56 Sunny 67 19.4 59 15 76 76 N 10 17 30.14 1021 10 16.0934 N/A
10:56 am 10:56 Sunny 71 21.7 60 15.6 68 68 VRB 5 7 30.14 1021 10 16.0934 N/A
11:56 am 11:56 Mostly Sunny 72 22.2 57 13.9 59 59 VRB 3 6 30.14 1021 10 16.0934 N/A
12:56 pm 12:56 Mostly Cloudy 73 22.8 59 15 62 62 NNE 7 11 30.13 1020 10 16.0934 N/A
2:56 pm 14:56 Mostly Sunny 77 25 58 14.4 52 52 NNW 10 17 30.11 1020 10 16.0934 N/A
3:56 pm 15:56 Sunny 77 25 55 12.8 47 47 NW 7 11 30.11 1020 10 16.0934 N/A
4:56 pm 16:56 Sunny 78 25.6 56 13.3 47 47 NW 10 17 30.09 1019 10 16.0934 N/A
5:56 pm 17:56 Mostly Sunny 76 24.4 55 12.8 48 48 N 8 13 30.1 1019 10 16.0934 N/A
6:56 pm 18:56 Sunny 75 23.9 55 12.8 50 50 N 10 17 30.1 1019 10 16.0934 N/A
7:56 pm 19:56 Sunny 73 22.8 55 12.8 53 53 N 10 17 30.11 1020 10 16.0934 N/A
8:56 pm 20:56 Sunny 70 21.1 56 13.3 61 61 NNW 3 6 30.12 1020 10 16.0934 N/A
9:56 pm 21:56 Clear 68 20 56 13.3 65 65 N 5 7 30.14 1021 10 16.0934 N/A
10:56 pm 22:56 Clear 62 16.7 56 13.3 80 80 ENE 3 6 30.15 1021 10 16.0934 N/A
11:56 pm 23:56 Clear 62 16.7 58 14.4 86 86 N N/A 30.14 1021 10 16.0934 N/A

Powered by AerisWeather